Time;durP1;ratioP1;P1;durP2;ratioP2;P2;SDS_P1;SDS_P2;PMS_P1;PMS_P2;Temp;Humidity;BMP_temperature;BMP_pressure;BME280_temperature;BME280_humidity;BME280_pressure;Samples;Min_cycle;Max_cycle;Signal;HPM_P1;HPM_P2
2023/08/26 00:00:09;;;;;;;;;;;23.60;61.10;;;;;;5052024;28;19913;-71
2023/08/26 00:02:36;;;;;;;;;;;23.90;59.40;;;;;;5046347;28;19924;-71
2023/08/26 00:05:03;;;;;;;;;;;23.90;58.40;;;;;;5056294;28;19994;-71
2023/08/26 00:07:30;;;;;;;;;;;23.90;57.60;;;;;;5056871;28;19990;-71
2023/08/26 00:09:56;;;;;;;;;;;24.10;55.60;;;;;;5040852;28;19909;-71
2023/08/26 00:12:23;;;;;;;;;;;24.10;55.00;;;;;;5036809;28;19948;-71
2023/08/26 00:14:49;;;;;;;;;;;24.60;56.50;;;;;;5035077;28;19909;-71
2023/08/26 00:17:18;;;;;;;;;;;24.80;54.80;;;;;;5018762;28;19920;-71
2023/08/26 00:19:44;;;;;;;;;;;24.80;53.80;;;;;;5031670;28;19920;-71
2023/08/26 00:22:11;;;;;;;;;;;24.30;54.80;;;;;;5036639;28;19929;-72
2023/08/26 00:24:39;;;;;;;;;;;24.70;55.50;;;;;;5036247;28;20359;-72
2023/08/26 00:27:05;;;;;;;;;;;25.40;51.60;;;;;;5036168;28;19932;-72
2023/08/26 00:29:32;;;;;;;;;;;25.20;54.00;;;;;;5036820;28;19909;-72
2023/08/26 00:31:59;;;;;;;;;;;25.60;53.30;;;;;;5051981;28;19909;-71
2023/08/26 00:34:25;;;;;;;;;;;26.10;51.20;;;;;;5036081;28;19956;-72
2023/08/26 00:36:52;;;;;;;;;;;26.60;52.80;;;;;;5036582;28;19913;-71
2023/08/26 00:39:19;;;;;;;;;;;26.20;51.90;;;;;;5036369;28;20310;-72
2023/08/26 00:41:46;;;;;;;;;;;26.50;53.00;;;;;;5036151;28;19921;-72
2023/08/26 00:44:13;;;;;;;;;;;26.50;52.60;;;;;;5035750;28;19921;-72
2023/08/26 00:46:39;;;;;;;;;;;26.30;52.40;;;;;;5036452;28;20584;-72
2023/08/26 00:49:07;;;;;;;;;;;25.90;53.80;;;;;;5036433;28;19996;-71
2023/08/26 00:51:36;;;;;;;;;;;26.20;53.80;;;;;;5036389;28;19909;-71
2023/08/26 00:54:04;;;;;;;;;;;25.50;50.80;;;;;;5051100;28;20332;-71
2023/08/26 00:56:31;;;;;;;;;;;23.80;56.30;;;;;;5036213;28;19913;-71
2023/08/26 00:58:58;;;;;;;;;;;23.60;57.10;;;;;;5051118;28;19967;-72
2023/08/26 01:01:26;;;;;;;;;;;23.50;57.70;;;;;;5035773;28;19909;-72
2023/08/26 01:03:53;;;;;;;;;;;23.30;59.30;;;;;;5050744;28;19915;-72
2023/08/26 01:06:19;;;;;;;;;;;23.00;58.40;;;;;;5055787;28;19909;-71
2023/08/26 01:08:46;;;;;;;;;;;22.30;60.70;;;;;;5055625;28;19966;-71
2023/08/26 01:11:22;;;;;;;;;;;21.90;62.10;;;;;;5036481;28;19909;-71
2023/08/26 01:14:07;;;;;;;;;;;23.00;61.80;;;;;;5035728;28;19913;-71
2023/08/26 01:16:35;;;;;;;;;;;23.80;59.80;;;;;;5035816;28;19920;-71
2023/08/26 01:19:02;;;;;;;;;;;24.90;54.40;;;;;;5035496;28;20011;-71
2023/08/26 01:21:35;;;;;;;;;;;24.50;56.00;;;;;;5035705;28;19980;-72
2023/08/26 01:24:02;;;;;;;;;;;24.50;55.00;;;;;;5035424;28;19909;-71
2023/08/26 01:26:29;;;;;;;;;;;24.40;54.70;;;;;;5035643;28;19952;-71
2023/08/26 01:28:56;;;;;;;;;;;25.10;55.00;;;;;;5036283;28;19909;-72
2023/08/26 01:31:22;;;;;;;;;;;25.70;54.20;;;;;;5035382;28;19909;-72
2023/08/26 01:33:52;;;;;;;;;;;25.20;53.30;;;;;;5034824;28;19909;-72
2023/08/26 01:36:22;;;;;;;;;;;24.60;53.80;;;;;;5034339;28;19915;-72
2023/08/26 01:38:49;;;;;;;;;;;23.80;56.10;;;;;;5035168;28;19955;-71
2023/08/26 01:41:18;;;;;;;;;;;23.10;57.40;;;;;;5035107;28;19909;-71
2023/08/26 01:43:45;;;;;;;;;;;22.80;57.70;;;;;;5034692;28;20419;-72
2023/08/26 01:46:12;;;;;;;;;;;22.60;60.10;;;;;;5034965;28;19916;-72
2023/08/26 01:48:39;;;;;;;;;;;22.60;59.10;;;;;;5035263;28;19909;-72
2023/08/26 01:51:05;;;;;;;;;;;23.30;57.70;;;;;;5035149;28;20038;-71
2023/08/26 01:53:33;;;;;;;;;;;24.40;55.30;;;;;;5034815;28;19916;-71
2023/08/26 01:55:59;;;;;;;;;;;24.80;53.20;;;;;;5034959;28;20401;-72
2023/08/26 01:58:26;;;;;;;;;;;25.30;51.20;;;;;;5039526;28;20380;-72
2023/08/26 02:00:53;;;;;;;;;;;25.30;51.30;;;;;;5046464;28;19916;-72
2023/08/26 02:03:19;;;;;;;;;;;25.40;51.70;;;;;;5045148;28;19917;-71
2023/08/26 02:05:46;;;;;;;;;;;25.80;51.90;;;;;;5054915;28;20320;-72
2023/08/26 02:08:13;;;;;;;;;;;26.30;50.10;;;;;;5044629;28;20274;-72
2023/08/26 02:10:39;;;;;;;;;;;26.60;48.60;;;;;;5034660;28;19909;-72
2023/08/26 02:13:06;;;;;;;;;;;26.70;49.60;;;;;;5034485;28;19909;-71
2023/08/26 02:15:35;;;;;;;;;;;26.70;49.80;;;;;;5034281;28;20003;-71
2023/08/26 02:18:02;;;;;;;;;;;26.30;51.00;;;;;;5034491;28;19920;-71
2023/08/26 02:20:29;;;;;;;;;;;25.70;50.00;;;;;;5034491;28;19909;-71
2023/08/26 02:22:55;;;;;;;;;;;24.40;51.80;;;;;;5034209;28;19917;-71
2023/08/26 02:25:22;;;;;;;;;;;23.90;50.70;;;;;;5033497;28;19955;-72
2023/08/26 02:27:49;;;;;;;;;;;23.60;52.30;;;;;;5034045;28;19909;-72
2023/08/26 02:30:15;;;;;;;;;;;23.30;52.90;;;;;;5034454;28;19963;-72
2023/08/26 02:32:42;;;;;;;;;;;23.10;54.70;;;;;;5034198;28;20008;-72
2023/08/26 02:35:09;;;;;;;;;;;23.00;54.50;;;;;;5049353;28;19920;-71
2023/08/26 02:37:35;;;;;;;;;;;22.80;55.20;;;;;;5034084;28;19909;-72
2023/08/26 02:40:03;;;;;;;;;;;22.40;56.20;;;;;;5034053;28;19916;-72
2023/08/26 02:42:30;;;;;;;;;;;22.30;56.40;;;;;;5033403;28;19917;-72
2023/08/26 02:44:56;;;;;;;;;;;22.10;57.40;;;;;;5033456;28;20024;-73
2023/08/26 02:47:23;;;;;;;;;;;21.90;57.30;;;;;;5033859;28;19996;-72
2023/08/26 02:49:50;;;;;;;;;;;21.60;58.10;;;;;;5033957;28;19913;-72
2023/08/26 02:52:16;;;;;;;;;;;21.60;57.90;;;;;;5033515;28;19940;-71
2023/08/26 02:54:43;;;;;;;;;;;21.70;58.70;;;;;;5033732;28;19909;-71
2023/08/26 02:57:09;;;;;;;;;;;22.60;58.00;;;;;;5033478;28;19913;-72
2023/08/26 02:59:36;;;;;;;;;;;23.30;55.10;;;;;;5034798;28;20267;-72
2023/08/26 03:02:03;;;;;;;;;;;23.10;54.70;;;;;;5033631;28;20446;-72
2023/08/26 03:04:33;;;;;;;;;;;22.50;55.20;;;;;;5014052;28;19913;-72
2023/08/26 03:07:00;;;;;;;;;;;22.20;55.90;;;;;;5013787;28;20393;-72
2023/08/26 03:09:28;;;;;;;;;;;22.90;56.20;;;;;;5025927;28;19909;-72
2023/08/26 03:11:55;;;;;;;;;;;23.70;55.20;;;;;;5033553;28;20368;-72
2023/08/26 03:14:22;;;;;;;;;;;24.20;51.50;;;;;;5033115;28;19917;-72
2023/08/26 03:16:48;;;;;;;;;;;24.30;52.70;;;;;;5033238;28;19956;-72
2023/08/26 03:19:15;;;;;;;;;;;24.80;51.00;;;;;;5033183;28;19971;-72
2023/08/26 03:21:42;;;;;;;;;;;25.20;52.20;;;;;;5033206;28;20429;-72
2023/08/26 03:24:08;;;;;;;;;;;25.50;51.80;;;;;;5032782;28;19913;-72
2023/08/26 03:26:35;;;;;;;;;;;25.90;49.70;;;;;;5032955;28;19962;-72
2023/08/26 03:29:02;;;;;;;;;;;26.00;49.30;;;;;;5033292;28;19921;-72
2023/08/26 03:31:29;;;;;;;;;;;25.60;48.30;;;;;;5033173;28;19916;-72
2023/08/26 03:33:56;;;;;;;;;;;25.00;49.70;;;;;;5032741;28;19920;-72
2023/08/26 03:36:22;;;;;;;;;;;24.60;50.30;;;;;;5032159;28;19913;-72
2023/08/26 03:38:49;;;;;;;;;;;24.10;51.10;;;;;;5032909;28;20007;-71
2023/08/26 03:41:15;;;;;;;;;;;23.60;51.70;;;;;;5033101;28;19952;-72
2023/08/26 03:43:42;;;;;;;;;;;23.40;52.10;;;;;;5032492;28;19925;-72
2023/08/26 03:46:09;;;;;;;;;;;23.20;53.00;;;;;;5032404;28;19910;-72
2023/08/26 03:48:39;;;;;;;;;;;23.00;54.20;;;;;;5031560;28;19915;-72
2023/08/26 03:51:06;;;;;;;;;;;23.10;53.30;;;;;;5015657;28;20274;-72
2023/08/26 03:53:32;;;;;;;;;;;23.60;53.80;;;;;;5013073;28;19916;-72
2023/08/26 03:56:01;;;;;;;;;;;23.60;52.80;;;;;;5013310;28;19910;-72
2023/08/26 03:58:27;;;;;;;;;;;23.20;51.60;;;;;;5023441;28;19909;-72
2023/08/26 04:01:06;;;;;;;;;;;23.00;51.90;;;;;;5036059;28;19913;-72
2023/08/26 04:03:33;;;;;;;;;;;22.60;52.00;;;;;;5044689;28;19928;-72
2023/08/26 04:06:04;;;;;;;;;;;22.30;53.80;;;;;;5052437;28;19912;-72
2023/08/26 04:08:31;;;;;;;;;;;22.50;53.50;;;;;;5032254;28;19917;-72
2023/08/26 04:10:59;;;;;;;;;;;22.60;53.30;;;;;;5032811;28;19914;-72
2023/08/26 04:13:26;;;;;;;;;;;22.90;53.00;;;;;;5032545;28;19909;-73
2023/08/26 04:15:53;;;;;;;;;;;22.60;53.60;;;;;;5032660;28;19999;-73
2023/08/26 04:18:21;;;;;;;;;;;22.20;54.80;;;;;;5032285;28;19935;-73
2023/08/26 04:20:47;;;;;;;;;;;22.20;55.00;;;;;;5047961;28;19909;-73
2023/08/26 04:23:14;;;;;;;;;;;22.00;55.90;;;;;;5032467;28;20386;-72
2023/08/26 04:25:41;;;;;;;;;;;22.10;55.30;;;;;;5032593;28;19913;-71
2023/08/26 04:28:08;;;;;;;;;;;21.90;56.70;;;;;;5032480;28;19909;-72
2023/08/26 04:30:36;;;;;;;;;;;21.90;56.50;;;;;;5032626;28;19913;-72
2023/08/26 04:33:04;;;;;;;;;;;21.80;56.40;;;;;;5030957;28;19910;-72
2023/08/26 04:35:31;;;;;;;;;;;21.70;57.60;;;;;;5032253;28;20350;-73
2023/08/26 04:37:58;;;;;;;;;;;21.70;57.30;;;;;;5032446;28;19924;-72
2023/08/26 04:40:27;;;;;;;;;;;21.60;58.20;;;;;;5032252;28;19920;-72
2023/08/26 04:42:54;;;;;;;;;;;21.60;59.00;;;;;;5030927;28;19921;-72
2023/08/26 04:45:22;;;;;;;;;;;21.50;59.50;;;;;;5031586;28;19929;-73
2023/08/26 04:47:49;;;;;;;;;;;21.50;59.60;;;;;;5034509;28;19909;-73
2023/08/26 04:50:16;;;;;;;;;;;21.50;60.40;;;;;;5035998;28;19920;-72
2023/08/26 04:52:43;;;;;;;;;;;21.20;60.90;;;;;;5036071;28;19913;-72
2023/08/26 04:55:11;;;;;;;;;;;21.20;61.70;;;;;;5034547;28;20373;-71
2023/08/26 04:57:38;;;;;;;;;;;21.20;62.70;;;;;;5050986;28;20286;-72
2023/08/26 05:00:10;;;;;;;;;;;21.10;62.50;;;;;;5035526;28;19910;-72
2023/08/26 05:02:40;;;;;;;;;;;21.30;62.30;;;;;;5040339;28;19940;-72
2023/08/26 05:05:07;;;;;;;;;;;21.40;61.80;;;;;;5055281;28;20406;-73
2023/08/26 05:07:34;;;;;;;;;;;21.50;61.10;;;;;;5049938;28;19915;-73
2023/08/26 05:10:01;;;;;;;;;;;21.70;62.10;;;;;;5035696;28;19909;-72
2023/08/26 05:12:28;;;;;;;;;;;21.80;61.70;;;;;;5035429;28;19937;-73
2023/08/26 05:14:54;;;;;;;;;;;21.80;61.40;;;;;;5034871;28;19913;-73
2023/08/26 05:17:21;;;;;;;;;;;21.70;61.20;;;;;;5035838;28;20390;-72
2023/08/26 05:19:47;;;;;;;;;;;21.90;61.90;;;;;;5035643;28;19935;-72
2023/08/26 05:22:14;;;;;;;;;;;21.80;62.60;;;;;;5035389;28;19921;-72
2023/08/26 05:24:41;;;;;;;;;;;21.90;63.00;;;;;;5034439;28;20429;-72
2023/08/26 05:27:07;;;;;;;;;;;21.90;63.60;;;;;;5035540;28;19909;-72
2023/08/26 05:29:34;;;;;;;;;;;21.80;63.30;;;;;;5035453;28;19909;-72
2023/08/26 05:32:01;;;;;;;;;;;21.90;63.30;;;;;;5035273;28;19920;-71
2023/08/26 05:34:27;;;;;;;;;;;21.90;63.00;;;;;;5035097;28;19932;-71
2023/08/26 05:36:54;;;;;;;;;;;21.90;63.00;;;;;;5035175;28;20059;-72
2023/08/26 05:39:21;;;;;;;;;;;22.00;62.90;;;;;;5035099;28;19955;-71
2023/08/26 05:41:47;;;;;;;;;;;21.70;62.80;;;;;;5034720;28;19939;-71
2023/08/26 05:44:14;;;;;;;;;;;21.50;63.70;;;;;;5034850;28;19925;-71
2023/08/26 05:46:41;;;;;;;;;;;21.30;64.90;;;;;;5034663;28;19913;-72
2023/08/26 05:49:07;;;;;;;;;;;21.30;65.70;;;;;;5034427;28;19909;-72
2023/08/26 05:51:34;;;;;;;;;;;21.30;65.50;;;;;;5034706;28;20428;-72
2023/08/26 05:54:01;;;;;;;;;;;21.30;65.60;;;;;;5034290;28;19913;-72
2023/08/26 05:56:27;;;;;;;;;;;21.40;65.90;;;;;;5034490;28;19915;-71
2023/08/26 05:58:54;;;;;;;;;;;21.50;65.50;;;;;;5034380;28;19952;-73
2023/08/26 06:01:21;;;;;;;;;;;21.50;65.10;;;;;;5034959;28;20279;-73
2023/08/26 06:03:47;;;;;;;;;;;21.40;65.50;;;;;;5048964;28;20000;-72
2023/08/26 06:06:14;;;;;;;;;;;21.30;65.90;;;;;;5033908;28;20347;-72
2023/08/26 06:08:40;;;;;;;;;;;21.10;66.10;;;;;;5014821;28;19914;-73
2023/08/26 06:11:07;;;;;;;;;;;21.10;66.00;;;;;;5015078;28;19909;-73
2023/08/26 06:13:34;;;;;;;;;;;21.00;66.20;;;;;;5014706;28;19909;-72
2023/08/26 06:16:00;;;;;;;;;;;20.90;66.30;;;;;;5023484;28;20335;-72
2023/08/26 06:18:28;;;;;;;;;;;20.60;67.00;;;;;;5032967;28;20374;-71
2023/08/26 06:20:54;;;;;;;;;;;20.60;67.00;;;;;;5027399;28;19925;-72
2023/08/26 06:23:21;;;;;;;;;;;20.50;67.10;;;;;;5024832;28;19929;-73
2023/08/26 06:25:52;;;;;;;;;;;20.40;67.00;;;;;;5034326;28;19913;-73
2023/08/26 06:28:19;;;;;;;;;;;20.40;67.70;;;;;;5033582;28;19909;-72
2023/08/26 06:30:46;;;;;;;;;;;20.40;67.50;;;;;;5034000;28;19909;-72
2023/08/26 06:33:12;;;;;;;;;;;20.10;67.70;;;;;;5033778;28;19913;-73
2023/08/26 06:35:39;;;;;;;;;;;19.90;68.80;;;;;;5031719;28;20283;-73
2023/08/26 06:38:07;;;;;;;;;;;19.80;69.10;;;;;;5034161;28;19909;-73
2023/08/26 06:40:34;;;;;;;;;;;19.70;69.00;;;;;;5033920;28;19909;-72
2023/08/26 06:43:03;;;;;;;;;;;19.40;69.30;;;;;;5033946;28;19917;-73
2023/08/26 06:45:30;;;;;;;;;;;19.30;70.00;;;;;;5032865;28;20382;-72
2023/08/26 06:47:58;;;;;;;;;;;19.30;69.50;;;;;;5033877;28;19913;-73
2023/08/26 06:50:24;;;;;;;;;;;19.10;69.70;;;;;;5033629;28;19909;-72
2023/08/26 06:52:51;;;;;;;;;;;19.00;69.50;;;;;;5048885;28;20264;-72
2023/08/26 06:55:18;;;;;;;;;;;18.90;70.10;;;;;;5032651;28;19913;-72
2023/08/26 06:57:45;;;;;;;;;;;18.90;70.00;;;;;;5048572;28;20318;-72
2023/08/26 07:00:13;;;;;;;;;;;18.80;69.90;;;;;;5053125;28;19909;-72
2023/08/26 07:02:39;;;;;;;;;;;18.70;69.90;;;;;;5053341;28;20362;-71
2023/08/26 07:05:06;;;;;;;;;;;18.70;70.50;;;;;;5053210;28;19920;-72
2023/08/26 07:07:33;;;;;;;;;;;18.70;71.10;;;;;;5039593;28;19916;-72
2023/08/26 07:09:59;;;;;;;;;;;18.70;70.60;;;;;;5032002;28;19909;-72
2023/08/26 07:12:26;;;;;;;;;;;18.60;70.70;;;;;;5033437;28;19916;-72
2023/08/26 07:14:53;;;;;;;;;;;18.40;70.30;;;;;;5033080;28;19909;-72
2023/08/26 07:17:19;;;;;;;;;;;18.40;70.40;;;;;;5033124;28;19912;-72
2023/08/26 07:19:46;;;;;;;;;;;18.30;69.90;;;;;;5032038;28;19920;-73
2023/08/26 07:22:13;;;;;;;;;;;18.10;70.00;;;;;;5033228;28;19917;-72
2023/08/26 07:24:39;;;;;;;;;;;18.10;70.00;;;;;;5032527;28;20373;-72
2023/08/26 07:27:06;;;;;;;;;;;18.10;70.20;;;;;;5033227;28;19909;-72
2023/08/26 07:29:36;;;;;;;;;;;18.10;70.20;;;;;;5031802;28;20277;-72
2023/08/26 07:32:03;;;;;;;;;;;18.00;70.50;;;;;;5032767;28;20007;-73
2023/08/26 07:34:29;;;;;;;;;;;17.90;70.10;;;;;;5033254;28;19916;-71
2023/08/26 07:36:58;;;;;;;;;;;17.90;70.40;;;;;;5033162;28;19917;-73
2023/08/26 07:39:24;;;;;;;;;;;17.80;70.10;;;;;;5033061;28;19916;-73
2023/08/26 07:41:51;;;;;;;;;;;17.60;69.90;;;;;;5031618;28;19925;-73
2023/08/26 07:44:18;;;;;;;;;;;17.70;69.90;;;;;;5032592;28;20310;-73
2023/08/26 07:46:45;;;;;;;;;;;17.60;69.90;;;;;;5032712;28;19911;-72
2023/08/26 07:49:11;;;;;;;;;;;17.60;70.50;;;;;;5032809;28;19924;-71
2023/08/26 07:51:38;;;;;;;;;;;17.60;70.80;;;;;;5032944;28;19909;-72
2023/08/26 07:54:05;;;;;;;;;;;17.50;71.20;;;;;;5033247;28;19909;-72
2023/08/26 07:56:32;;;;;;;;;;;17.50;72.40;;;;;;5032847;28;19917;-72
2023/08/26 07:58:59;;;;;;;;;;;17.40;73.10;;;;;;5032289;28;19948;-70
2023/08/26 08:01:25;;;;;;;;;;;17.40;73.90;;;;;;5032803;28;19913;-71
2023/08/26 08:03:52;;;;;;;;;;;17.40;74.90;;;;;;5047572;28;19928;-72
2023/08/26 08:06:18;;;;;;;;;;;17.30;75.40;;;;;;5033587;28;19909;-74
2023/08/26 08:08:45;;;;;;;;;;;17.30;76.20;;;;;;5032693;28;20492;-72
2023/08/26 08:11:12;;;;;;;;;;;17.20;77.00;;;;;;5032767;28;19923;-71
2023/08/26 08:13:38;;;;;;;;;;;17.20;78.00;;;;;;5032701;28;20198;-73
2023/08/26 08:16:05;;;;;;;;;;;17.10;77.70;;;;;;5032689;28;19909;-71
2023/08/26 08:18:32;;;;;;;;;;;16.90;78.80;;;;;;5032923;28;20009;-72
2023/08/26 08:20:58;;;;;;;;;;;16.90;79.00;;;;;;5032871;28;19963;-71
2023/08/26 08:23:25;;;;;;;;;;;16.70;79.70;;;;;;5035445;28;19940;-72
2023/08/26 08:25:52;;;;;;;;;;;16.50;80.10;;;;;;5036787;28;19913;-72
2023/08/26 08:28:18;;;;;;;;;;;16.40;81.10;;;;;;5036527;28;19999;-71
2023/08/26 08:30:45;;;;;;;;;;;16.20;81.90;;;;;;5036993;28;19909;-71
2023/08/26 08:33:12;;;;;;;;;;;16.10;82.40;;;;;;5036607;28;19967;-73
2023/08/26 08:35:38;;;;;;;;;;;16.00;83.30;;;;;;5036141;28;19960;-72
2023/08/26 08:38:05;;;;;;;;;;;16.00;83.70;;;;;;5036260;28;19909;-71
2023/08/26 08:40:31;;;;;;;;;;;16.00;83.60;;;;;;5051852;28;19962;-72
2023/08/26 08:42:59;;;;;;;;;;;16.00;84.30;;;;;;5034853;28;19917;-71
2023/08/26 08:45:26;;;;;;;;;;;16.00;84.50;;;;;;5035754;28;19921;-72
2023/08/26 08:47:53;;;;;;;;;;;16.00;84.80;;;;;;5036460;28;19909;-72
2023/08/26 08:50:20;;;;;;;;;;;16.00;85.20;;;;;;5035935;28;20000;-72
2023/08/26 08:52:49;;;;;;;;;;;16.00;85.20;;;;;;5036352;28;19909;-72
2023/08/26 08:55:16;;;;;;;;;;;15.90;85.00;;;;;;5035851;28;19909;-72
2023/08/26 08:57:43;;;;;;;;;;;15.80;85.70;;;;;;5042933;28;20035;-72
2023/08/26 09:00:10;;;;;;;;;;;15.80;86.00;;;;;;5056064;28;19913;-71
2023/08/26 09:02:42;;;;;;;;;;;15.70;86.00;;;;;;5055373;28;20350;-72
2023/08/26 09:05:09;;;;;;;;;;;15.60;86.50;;;;;;5053053;28;19909;-73
2023/08/26 09:07:37;;;;;;;;;;;15.50;87.10;;;;;;5035141;28;20412;-72
2023/08/26 09:10:05;;;;;;;;;;;15.40;87.60;;;;;;5035110;28;19955;-72
2023/08/26 09:12:32;;;;;;;;;;;15.40;88.20;;;;;;5050119;28;19920;-72
2023/08/26 09:14:59;;;;;;;;;;;15.20;88.60;;;;;;5035181;28;19916;-73
2023/08/26 09:17:25;;;;;;;;;;;15.10;89.20;;;;;;5033758;28;19919;-72
2023/08/26 09:19:56;;;;;;;;;;;15.10;89.60;;;;;;5035065;28;19910;-73
2023/08/26 09:22:26;;;;;;;;;;;15.10;90.10;;;;;;5034491;28;19921;-73
2023/08/26 09:24:56;;;;;;;;;;;15.00;90.20;;;;;;5034791;28;19913;-72
2023/08/26 09:27:23;;;;;;;;;;;15.00;90.50;;;;;;5034751;28;20286;-73
2023/08/26 09:29:50;;;;;;;;;;;14.90;90.70;;;;;;5034907;28;20380;-72
2023/08/26 09:32:31;;;;;;;;;;;14.80;90.90;;;;;;5035194;28;19916;-72
2023/08/26 09:35:13;;;;;;;;;;;14.80;91.20;;;;;;5033208;28;20406;-71
2023/08/26 09:37:41;;;;;;;;;;;14.80;91.50;;;;;;5034698;28;20433;-72
2023/08/26 09:40:11;;;;;;;;;;;14.80;91.70;;;;;;5034536;28;19935;-72
2023/08/26 09:42:39;;;;;;;;;;;14.70;91.80;;;;;;5034435;28;20461;-72
2023/08/26 09:45:10;;;;;;;;;;;14.70;92.00;;;;;;5034181;28;20321;-72
2023/08/26 09:47:37;;;;;;;;;;;14.70;92.10;;;;;;5033939;28;19955;-71
2023/08/26 09:50:04;;;;;;;;;;;14.60;92.30;;;;;;5034449;28;19920;-71
2023/08/26 09:52:41;;;;;;;;;;;14.50;92.40;;;;;;5034383;28;20011;-71
2023/08/26 09:55:09;;;;;;;;;;;14.50;92.70;;;;;;5033721;28;19913;-71
2023/08/26 09:57:35;;;;;;;;;;;14.40;92.90;;;;;;5033862;28;19915;-72
2023/08/26 10:00:03;;;;;;;;;;;14.40;92.80;;;;;;5034010;28;19909;-73
2023/08/26 10:02:31;;;;;;;;;;;14.30;92.90;;;;;;5037670;28;20012;-72
2023/08/26 10:05:01;;;;;;;;;;;14.20;93.00;;;;;;5037564;28;20267;-72
2023/08/26 10:07:29;;;;;;;;;;;14.10;93.30;;;;;;5034419;28;19909;-71
2023/08/26 10:09:55;;;;;;;;;;;14.00;93.40;;;;;;5033976;28;19909;-71
2023/08/26 10:12:28;;;;;;;;;;;14.00;93.70;;;;;;5033834;28;19910;-72
2023/08/26 10:14:56;;;;;;;;;;;13.90;93.80;;;;;;5033280;28;20382;-72
2023/08/26 10:17:23;;;;;;;;;;;13.90;93.90;;;;;;5033755;28;20346;-71
2023/08/26 10:19:50;;;;;;;;;;;13.90;93.90;;;;;;5034173;28;19909;-72
2023/08/26 10:22:17;;;;;;;;;;;13.80;94.00;;;;;;5033606;28;20008;-72
2023/08/26 10:24:44;;;;;;;;;;;13.70;94.10;;;;;;5033298;28;19910;-72
2023/08/26 10:27:11;;;;;;;;;;;13.70;94.10;;;;;;5034032;28;19940;-72
2023/08/26 10:29:38;;;;;;;;;;;13.70;94.00;;;;;;5033064;28;20274;-72
2023/08/26 10:32:17;;;;;;;;;;;13.70;94.10;;;;;;5049011;28;19921;-71
2023/08/26 10:34:56;;;;;;;;;;;13.60;94.20;;;;;;5033068;28;20010;-72
2023/08/26 10:37:32;;;;;;;;;;;13.60;94.70;;;;;;5033154;28;19913;-72
2023/08/26 10:40:08;;;;;;;;;;;13.60;94.40;;;;;;5033722;28;19916;-72
2023/08/26 10:42:36;;;;;;;;;;;13.60;94.40;;;;;;5033388;28;19921;-71
2023/08/26 10:45:11;;;;;;;;;;;13.60;94.30;;;;;;5047575;28;19972;-72
2023/08/26 10:47:40;;;;;;;;;;;13.60;94.40;;;;;;5033146;28;19998;-71
2023/08/26 10:50:14;;;;;;;;;;;13.60;94.70;;;;;;5032001;28;19916;-71
2023/08/26 10:52:42;;;;;;;;;;;13.80;94.80;;;;;;5033423;28;20011;-73
2023/08/26 10:55:29;;;;;;;;;;;13.80;94.90;;;;;;5031614;28;19916;-72
2023/08/26 10:58:16;;;;;;;;;;;13.90;95.10;;;;;;5041466;28;20346;-71
2023/08/26 11:00:50;;;;;;;;;;;13.90;95.10;;;;;;5051817;28;19916;-72
2023/08/26 11:03:21;;;;;;;;;;;14.00;95.20;;;;;;5052869;28;19928;-72
2023/08/26 11:06:00;;;;;;;;;;;14.00;95.10;;;;;;5037172;28;20289;-72
2023/08/26 11:08:26;;;;;;;;;;;14.00;95.00;;;;;;5033315;28;19913;-72
2023/08/26 11:10:53;;;;;;;;;;;14.10;95.20;;;;;;5033290;28;19909;-72
2023/08/26 11:13:21;;;;;;;;;;;14.20;95.10;;;;;;5031452;28;19909;-72
2023/08/26 11:15:49;;;;;;;;;;;14.20;94.90;;;;;;5033319;28;19913;-72
2023/08/26 11:18:16;;;;;;;;;;;14.20;94.80;;;;;;5033427;28;19956;-72
2023/08/26 11:20:44;;;;;;;;;;;14.20;94.90;;;;;;5031396;28;19968;-71
2023/08/26 11:23:11;;;;;;;;;;;14.30;95.00;;;;;;5046257;28;20384;-72
2023/08/26 11:25:38;;;;;;;;;;;14.30;95.10;;;;;;5031415;28;19909;-72
2023/08/26 11:28:07;;;;;;;;;;;14.30;95.00;;;;;;5031401;28;19909;-72
2023/08/26 11:30:37;;;;;;;;;;;14.30;94.80;;;;;;5011640;28;19914;-71
2023/08/26 11:33:11;;;;;;;;;;;14.40;94.70;;;;;;5011627;28;19913;-72
2023/08/26 11:35:39;;;;;;;;;;;14.40;94.50;;;;;;5013000;28;19959;-72
2023/08/26 11:38:07;;;;;;;;;;;14.30;94.50;;;;;;5014712;28;19913;-72
2023/08/26 11:40:34;;;;;;;;;;;14.30;94.80;;;;;;5048804;28;19967;-72
2023/08/26 11:43:11;;;;;;;;;;;14.30;95.00;;;;;;5033209;28;20015;-71
2023/08/26 11:45:42;;;;;;;;;;;14.40;95.20;;;;;;5047102;28;20390;-71
2023/08/26 11:48:12;;;;;;;;;;;14.30;95.20;;;;;;5047838;28;19915;-72
2023/08/26 11:50:39;;;;;;;;;;;14.30;95.50;;;;;;5032469;28;19945;-71
2023/08/26 11:53:06;;;;;;;;;;;14.30;95.50;;;;;;5032411;28;19955;-71
2023/08/26 11:55:33;;;;;;;;;;;14.30;95.50;;;;;;5031158;28;20000;-71
2023/08/26 11:58:00;;;;;;;;;;;14.30;95.50;;;;;;5040163;28;20359;-71
2023/08/26 12:00:28;;;;;;;;;;;14.30;95.50;;;;;;5052135;28;19964;-71
2023/08/26 12:03:04;;;;;;;;;;;14.30;95.30;;;;;;5059392;28;20334;-71
2023/08/26 12:05:43;;;;;;;;;;;14.40;95.10;;;;;;5032008;28;20451;-71
2023/08/26 12:08:14;;;;;;;;;;;14.30;95.10;;;;;;5032187;28;19983;-71
2023/08/26 12:10:41;;;;;;;;;;;14.40;95.10;;;;;;5032179;28;19913;-71
2023/08/26 12:13:08;;;;;;;;;;;14.40;95.00;;;;;;5031910;28;20354;-72
2023/08/26 12:15:34;;;;;;;;;;;14.40;95.20;;;;;;5031684;28;20359;-71
2023/08/26 12:18:02;;;;;;;;;;;14.40;95.30;;;;;;5032193;28;19913;-71
2023/08/26 12:20:30;;;;;;;;;;;14.40;95.40;;;;;;5032092;28;19913;-71
2023/08/26 12:23:00;;;;;;;;;;;14.30;95.50;;;;;;5047141;28;19971;-71
2023/08/26 12:25:33;;;;;;;;;;;14.30;95.50;;;;;;5028702;28;19984;-71
2023/08/26 12:28:10;;;;;;;;;;;14.40;95.50;;;;;;5010792;28;20060;-71
2023/08/26 12:30:37;;;;;;;;;;;14.50;95.40;;;;;;5017227;28;19913;-71
2023/08/26 12:33:07;;;;;;;;;;;14.40;95.30;;;;;;5032020;28;20008;-71
2023/08/26 12:35:34;;;;;;;;;;;14.40;95.40;;;;;;5031811;28;19920;-71
2023/08/26 12:38:02;;;;;;;;;;;14.40;95.30;;;;;;5030130;28;20313;-71
2023/08/26 12:40:30;;;;;;;;;;;14.30;95.30;;;;;;5031649;28;19967;-72
2023/08/26 12:42:58;;;;;;;;;;;14.40;95.40;;;;;;5032044;28;19921;-71
2023/08/26 12:45:24;;;;;;;;;;;14.40;95.50;;;;;;5031177;28;19925;-72
2023/08/26 12:47:52;;;;;;;;;;;14.30;95.50;;;;;;5031608;28;19909;-71
2023/08/26 12:50:22;;;;;;;;;;;14.50;95.70;;;;;;5030961;28;20216;-72
2023/08/26 12:52:49;;;;;;;;;;;14.40;95.60;;;;;;5032365;28;19953;-72
2023/08/26 12:55:16;;;;;;;;;;;14.40;95.60;;;;;;5045608;28;20108;-72
2023/08/26 12:57:43;;;;;;;;;;;14.50;95.50;;;;;;5030526;28;19913;-72
2023/08/26 13:00:11;;;;;;;;;;;14.60;95.30;;;;;;5030696;28;19909;-72
2023/08/26 13:02:38;;;;;;;;;;;14.90;94.80;;;;;;5035177;28;20026;-72
2023/08/26 13:05:08;;;;;;;;;;;14.70;94.80;;;;;;5032214;28;19909;-72
2023/08/26 13:07:35;;;;;;;;;;;14.50;95.10;;;;;;5030224;28;20341;-72
2023/08/26 13:10:02;;;;;;;;;;;14.40;95.10;;;;;;5035767;28;19913;-71
2023/08/26 13:12:29;;;;;;;;;;;14.40;95.50;;;;;;5035675;28;19913;-72
2023/08/26 13:14:56;;;;;;;;;;;14.30;95.60;;;;;;5035287;28;20358;-72
2023/08/26 13:17:22;;;;;;;;;;;14.30;95.70;;;;;;5035750;28;19912;-71
2023/08/26 13:19:50;;;;;;;;;;;14.30;95.80;;;;;;5034308;28;19909;-71
2023/08/26 13:22:16;;;;;;;;;;;14.40;95.80;;;;;;5035589;28;19928;-71
2023/08/26 13:24:43;;;;;;;;;;;14.40;95.80;;;;;;5035203;28;20389;-72
2023/08/26 13:27:10;;;;;;;;;;;14.40;96.10;;;;;;5035340;28;19913;-71
2023/08/26 13:29:36;;;;;;;;;;;14.40;96.00;;;;;;5035842;28;20359;-71
2023/08/26 13:32:03;;;;;;;;;;;14.50;96.20;;;;;;5035449;28;19916;-71
2023/08/26 13:34:30;;;;;;;;;;;14.50;96.30;;;;;;5034720;28;19919;-71
2023/08/26 13:36:57;;;;;;;;;;;14.60;96.40;;;;;;5050530;28;19909;-71
2023/08/26 13:39:23;;;;;;;;;;;14.60;96.60;;;;;;5035320;28;19999;-72
2023/08/26 13:41:50;;;;;;;;;;;14.60;96.60;;;;;;5035270;28;20366;-71
2023/08/26 13:44:17;;;;;;;;;;;14.50;96.70;;;;;;5033494;28;19921;-72
2023/08/26 13:46:44;;;;;;;;;;;14.50;96.70;;;;;;5035594;28;19913;-72
2023/08/26 13:49:11;;;;;;;;;;;14.40;96.70;;;;;;5035041;28;19919;-71
2023/08/26 13:51:37;;;;;;;;;;;14.40;96.90;;;;;;5034962;28;19977;-71
2023/08/26 13:54:04;;;;;;;;;;;14.30;96.90;;;;;;5034561;28;19913;-71
2023/08/26 13:56:32;;;;;;;;;;;14.20;97.00;;;;;;5035098;28;19909;-71
2023/08/26 13:59:00;;;;;;;;;;;14.20;97.20;;;;;;5051859;28;19916;-71
2023/08/26 14:01:28;;;;;;;;;;;14.10;97.20;;;;;;5050612;28;19963;-71
2023/08/26 14:03:54;;;;;;;;;;;14.10;97.20;;;;;;5018832;28;20334;-71
2023/08/26 14:06:21;;;;;;;;;;;14.00;97.30;;;;;;5015185;28;20307;-71
2023/08/26 14:08:47;;;;;;;;;;;13.90;97.30;;;;;;5015114;28;20294;-71
2023/08/26 14:11:14;;;;;;;;;;;13.80;97.40;;;;;;5017740;28;19913;-71
2023/08/26 14:13:41;;;;;;;;;;;13.80;97.40;;;;;;5034395;28;19909;-70
2023/08/26 14:16:07;;;;;;;;;;;13.80;97.50;;;;;;5034475;28;19958;-71
2023/08/26 14:18:34;;;;;;;;;;;13.80;97.30;;;;;;5034290;28;19909;-71